Fiatt, Illinois
Current Conditions -  °F | °C
As of 5:55 AM on Thursday 27 Nov 2014 (Local Time) from KMQB Reporting Station
Overcast Overcast  
Wind Chill: -9°   Ceiling: 2700
Heat Index: -3°   Visibility: 10mi
Dew Point: -5°   Wind: 13mph
Humidity: 87%   Direction: 320°NW
Pressure: 30.4"   Gusts: NA
Location:  40.56°N, 90.18°W
Report Text: KMQB 271155Z AUTO 32011KT 10SM SCT017 OVC027 M03/M05 A3040 RMK AO2 70002 T10311050 11029 21082
Loading
Personal Weather Stations






























Interactive Weather Map New forecast layout! Learn more

10-Day Weather Forecast

Advertisements
Track Severe Weather on mobile